Lansing, Michigan
Current Conditions -  °F | °C
As of 7:53 AM on Saturday 25 Oct 2014 (Local Time) from KLAN Reporting Station
Haze Haze  
Wind Chill: 53°   Ceiling: 1400
Heat Index: 53°   Visibility: 6mi
Dew Point: 48°   Wind: 9mph
Humidity: 83%   Direction: 230°SW
Pressure: 29.83"   Gusts: NA
Location:  42.73°N, 84.55°W
Report Text: KLAN 251153Z 23008KT 6SM HZ BKN014 12/09 A2983 RMK AO2 SLP103 T01170089 10117 20067 58006
Loading
Personal Weather Stations






























Interactive Weather Map
Tropical Storm Tracking
New forecast layout! Learn more

10-Day Weather Forecast

Advertisements
Track Severe Weather on mobile